sensor_id;sensor_type;location;lat;lon;timestamp;pressure;altitude;pressure_sealevel;temperature;humidity
41800;BME280;27468;47.460;19.034;2023-05-24T00:01:15;100132.31;;;18.14;82.30
41800;BME280;27468;47.460;19.034;2023-05-24T00:03:52;100127.91;;;18.13;82.14
41800;BME280;27468;47.460;19.034;2023-05-24T00:06:18;100104.50;;;18.03;82.28
41800;BME280;27468;47.460;19.034;2023-05-24T00:08:45;100110.34;;;18.09;82.08
41800;BME280;27468;47.460;19.034;2023-05-24T00:11:10;100094.44;;;18.08;81.75
41800;BME280;27468;47.460;19.034;2023-05-24T00:13:36;100081.34;;;18.03;81.85
41800;BME280;27468;47.460;19.034;2023-05-24T00:16:02;100088.94;;;18.11;81.64
41800;BME280;27468;47.460;19.034;2023-05-24T00:18:27;100083.06;;;18.04;81.43
41800;BME280;27468;47.460;19.034;2023-05-24T00:20:56;100091.84;;;18.06;81.29
41800;BME280;27468;47.460;19.034;2023-05-24T00:23:23;100063.25;;;17.93;80.74
41800;BME280;27468;47.460;19.034;2023-05-24T00:25:50;100107.19;;;18.19;80.57
41800;BME280;27468;47.460;19.034;2023-05-24T00:28:15;100111.91;;;18.13;81.01
41800;BME280;27468;47.460;19.034;2023-05-24T00:30:41;100049.31;;;17.72;81.05
41800;BME280;27468;47.460;19.034;2023-05-24T00:33:06;100089.69;;;17.97;81.20
41800;BME280;27468;47.460;19.034;2023-05-24T00:35:31;100105.59;;;17.99;81.29
41800;BME280;27468;47.460;19.034;2023-05-24T00:37:57;100104.56;;;18.01;81.05
41800;BME280;27468;47.460;19.034;2023-05-24T00:40:22;100092.34;;;17.97;81.49
41800;BME280;27468;47.460;19.034;2023-05-24T00:42:48;100072.81;;;17.81;81.63
41800;BME280;27468;47.460;19.034;2023-05-24T00:45:13;100091.75;;;17.92;82.01
41800;BME280;27468;47.460;19.034;2023-05-24T00:47:39;100085.91;;;17.86;81.98
41800;BME280;27468;47.460;19.034;2023-05-24T00:50:06;100035.31;;;17.51;82.38
41800;BME280;27468;47.460;19.034;2023-05-24T00:52:32;100074.25;;;17.71;82.38
41800;BME280;27468;47.460;19.034;2023-05-24T00:54:58;100100.44;;;17.80;82.73
41800;BME280;27468;47.460;19.034;2023-05-24T00:57:23;100032.97;;;17.45;82.79
41800;BME280;27468;47.460;19.034;2023-05-24T00:59:50;100103.03;;;17.81;82.85
41800;BME280;27468;47.460;19.034;2023-05-24T01:02:15;100070.41;;;17.59;83.20
41800;BME280;27468;47.460;19.034;2023-05-24T01:04:41;100102.25;;;17.79;83.53
41800;BME280;27468;47.460;19.034;2023-05-24T01:10:29;100102.41;;;17.76;83.87
41800;BME280;27468;47.460;19.034;2023-05-24T01:13:43;100104.28;;;17.74;84.14
41800;BME280;27468;47.460;19.034;2023-05-24T01:16:23;100102.09;;;17.65;83.99
41800;BME280;27468;47.460;19.034;2023-05-24T01:18:53;100054.38;;;17.43;84.68
41800;BME280;27468;47.460;19.034;2023-05-24T01:24:12;100076.16;;;17.52;85.30
41800;BME280;27468;47.460;19.034;2023-05-24T01:29:28;100069.88;;;17.53;85.11
41800;BME280;27468;47.460;19.034;2023-05-24T01:31:54;100056.00;;;17.46;84.71
41800;BME280;27468;47.460;19.034;2023-05-24T01:34:19;100087.88;;;17.65;84.30
41800;BME280;27468;47.460;19.034;2023-05-24T01:36:44;100079.44;;;17.57;84.79
41800;BME280;27468;47.460;19.034;2023-05-24T01:39:11;100069.19;;;17.49;85.27
41800;BME280;27468;47.460;19.034;2023-05-24T01:41:58;100080.63;;;17.51;85.70
41800;BME280;27468;47.460;19.034;2023-05-24T01:44:47;100083.53;;;17.46;86.06
41800;BME280;27468;47.460;19.034;2023-05-24T01:49:53;100056.78;;;17.32;85.83
41800;BME280;27468;47.460;19.034;2023-05-24T01:52:21;100080.41;;;17.38;86.25
41800;BME280;27468;47.460;19.034;2023-05-24T01:54:51;100036.56;;;17.11;86.61
41800;BME280;27468;47.460;19.034;2023-05-24T01:57:21;100073.84;;;17.28;87.15
41800;BME280;27468;47.460;19.034;2023-05-24T01:59:48;100027.34;;;17.01;87.28
41800;BME280;27468;47.460;19.034;2023-05-24T02:02:14;100078.75;;;17.36;87.35
41800;BME280;27468;47.460;19.034;2023-05-24T02:04:40;100029.75;;;17.05;87.30
41800;BME280;27468;47.460;19.034;2023-05-24T02:07:05;100059.13;;;17.21;87.79
41800;BME280;27468;47.460;19.034;2023-05-24T02:09:31;100015.66;;;16.86;87.87
41800;BME280;27468;47.460;19.034;2023-05-24T02:11:56;100038.84;;;17.01;87.74
41800;BME280;27468;47.460;19.034;2023-05-24T02:14:22;100075.44;;;17.15;87.80
41800;BME280;27468;47.460;19.034;2023-05-24T02:16:49;100033.22;;;16.90;87.78
41800;BME280;27468;47.460;19.034;2023-05-24T02:19:15;100076.53;;;17.11;87.74
41800;BME280;27468;47.460;19.034;2023-05-24T02:21:41;100049.09;;;16.92;87.87
41800;BME280;27468;47.460;19.034;2023-05-24T02:24:07;100066.97;;;17.07;87.56
41800;BME280;27468;47.460;19.034;2023-05-24T02:26:35;100046.69;;;16.87;87.64
41800;BME280;27468;47.460;19.034;2023-05-24T02:29:01;100082.16;;;17.05;88.07
41800;BME280;27468;47.460;19.034;2023-05-24T02:31:26;100073.84;;;16.94;88.40
41800;BME280;27468;47.460;19.034;2023-05-24T02:33:56;100043.97;;;16.71;88.77
41800;BME280;27468;47.460;19.034;2023-05-24T02:36:22;100084.44;;;16.95;88.97
41800;BME280;27468;47.460;19.034;2023-05-24T02:38:48;100079.56;;;16.86;89.49
41800;BME280;27468;47.460;19.034;2023-05-24T02:41:14;100048.28;;;16.74;89.25
41800;BME280;27468;47.460;19.034;2023-05-24T02:43:43;100082.94;;;16.90;89.74
41800;BME280;27468;47.460;19.034;2023-05-24T02:46:08;100063.91;;;16.80;89.82
41800;BME280;27468;47.460;19.034;2023-05-24T02:48:34;100042.59;;;16.63;89.83
41800;BME280;27468;47.460;19.034;2023-05-24T02:51:00;100054.59;;;16.71;90.28
41800;BME280;27468;47.460;19.034;2023-05-24T02:53:28;100073.53;;;16.82;90.12
41800;BME280;27468;47.460;19.034;2023-05-24T02:55:53;100023.78;;;16.48;89.99
41800;BME280;27468;47.460;19.034;2023-05-24T02:58:18;100051.44;;;16.63;90.40
41800;BME280;27468;47.460;19.034;2023-05-24T03:00:44;100049.22;;;16.54;90.66
41800;BME280;27468;47.460;19.034;2023-05-24T03:03:09;100018.84;;;16.41;90.37
41800;BME280;27468;47.460;19.034;2023-05-24T03:05:35;100077.78;;;16.69;90.29
41800;BME280;27468;47.460;19.034;2023-05-24T03:08:00;100072.38;;;16.71;90.02
41800;BME280;27468;47.460;19.034;2023-05-24T03:10:26;100067.28;;;16.66;89.93
41800;BME280;27468;47.460;19.034;2023-05-24T03:12:51;100048.44;;;16.52;90.30
41800;BME280;27468;47.460;19.034;2023-05-24T03:15:16;100084.19;;;16.82;90.03
41800;BME280;27468;47.460;19.034;2023-05-24T03:17:42;100046.97;;;16.64;89.84
41800;BME280;27468;47.460;19.034;2023-05-24T03:20:07;100018.06;;;16.56;89.41
41800;BME280;27468;47.460;19.034;2023-05-24T03:22:33;100042.22;;;16.70;89.15
41800;BME280;27468;47.460;19.034;2023-05-24T03:24:58;100054.59;;;16.89;88.98
41800;BME280;27468;47.460;19.034;2023-05-24T03:27:24;100082.09;;;17.06;88.80
41800;BME280;27468;47.460;19.034;2023-05-24T03:29:49;100031.78;;;16.83;88.22
41800;BME280;27468;47.460;19.034;2023-05-24T03:32:15;100052.41;;;16.97;87.88
41800;BME280;27468;47.460;19.034;2023-05-24T03:34:40;100042.28;;;16.86;88.37
41800;BME280;27468;47.460;19.034;2023-05-24T03:37:06;100080.13;;;17.10;88.22
41800;BME280;27468;47.460;19.034;2023-05-24T03:39:31;100089.53;;;17.17;88.21
41800;BME280;27468;47.460;19.034;2023-05-24T03:41:57;100084.75;;;17.06;88.22
41800;BME280;27468;47.460;19.034;2023-05-24T03:44:23;100044.09;;;16.86;88.80
41800;BME280;27468;47.460;19.034;2023-05-24T03:46:48;100078.41;;;17.26;87.84
41800;BME280;27468;47.460;19.034;2023-05-24T03:49:13;100056.09;;;17.11;87.53
41800;BME280;27468;47.460;19.034;2023-05-24T03:51:39;100101.56;;;17.41;87.26
41800;BME280;27468;47.460;19.034;2023-05-24T03:54:04;100048.94;;;16.95;87.65
41800;BME280;27468;47.460;19.034;2023-05-24T03:56:30;100100.25;;;17.33;87.87
41800;BME280;27468;47.460;19.034;2023-05-24T03:58:55;100107.28;;;17.34;87.77
41800;BME280;27468;47.460;19.034;2023-05-24T04:01:24;100099.25;;;17.18;87.95
41800;BME280;27468;47.460;19.034;2023-05-24T04:03:50;100088.03;;;17.29;87.66
41800;BME280;27468;47.460;19.034;2023-05-24T04:06:16;100065.00;;;17.10;87.90
41800;BME280;27468;47.460;19.034;2023-05-24T04:08:42;100061.41;;;17.11;87.96
41800;BME280;27468;47.460;19.034;2023-05-24T04:11:08;100090.88;;;17.26;87.57
41800;BME280;27468;47.460;19.034;2023-05-24T04:13:33;100095.59;;;17.36;87.87
41800;BME280;27468;47.460;19.034;2023-05-24T04:15:59;100111.97;;;17.46;87.71
41800;BME280;27468;47.460;19.034;2023-05-24T04:18:24;100089.59;;;17.33;87.63
41800;BME280;27468;47.460;19.034;2023-05-24T04:20:50;100119.25;;;17.60;87.81
41800;BME280;27468;47.460;19.034;2023-05-24T04:23:15;100119.41;;;17.57;87.54
41800;BME280;27468;47.460;19.034;2023-05-24T04:25:41;100110.09;;;17.65;87.29
41800;BME280;27468;47.460;19.034;2023-05-24T04:28:06;100104.69;;;17.67;86.84
41800;BME280;27468;47.460;19.034;2023-05-24T04:30:32;100099.91;;;17.73;86.36
41800;BME280;27468;47.460;19.034;2023-05-24T04:32:58;100119.78;;;17.84;86.54
41800;BME280;27468;47.460;19.034;2023-05-24T04:35:24;100123.06;;;17.89;86.42
41800;BME280;27468;47.460;19.034;2023-05-24T04:37:53;100062.03;;;17.67;86.11
41800;BME280;27468;47.460;19.034;2023-05-24T04:40:18;100089.44;;;17.86;85.96
41800;BME280;27468;47.460;19.034;2023-05-24T04:42:47;100140.25;;;18.32;85.81
41800;BME280;27468;47.460;19.034;2023-05-24T04:45:13;100114.50;;;18.78;83.23
41800;BME280;27468;47.460;19.034;2023-05-24T04:47:40;100096.88;;;19.20;80.86
41800;BME280;27468;47.460;19.034;2023-05-24T04:50:06;100054.94;;;19.50;78.69
41800;BME280;27468;47.460;19.034;2023-05-24T04:52:32;100053.50;;;19.73;76.54
41800;BME280;27468;47.460;19.034;2023-05-24T04:54:57;100115.31;;;20.11;75.54
41800;BME280;27468;47.460;19.034;2023-05-24T04:57:23;100122.69;;;19.93;75.03
41800;BME280;27468;47.460;19.034;2023-05-24T04:59:48;100116.28;;;19.82;75.46
41800;BME280;27468;47.460;19.034;2023-05-24T05:02:14;100082.94;;;19.59;75.76
41800;BME280;27468;47.460;19.034;2023-05-24T05:04:39;100131.34;;;19.68;75.84
41800;BME280;27468;47.460;19.034;2023-05-24T05:07:06;100126.97;;;19.53;76.80
41800;BME280;27468;47.460;19.034;2023-05-24T05:09:31;100125.25;;;19.52;76.00
41800;BME280;27468;47.460;19.034;2023-05-24T05:11:57;100102.13;;;19.21;76.61
41800;BME280;27468;47.460;19.034;2023-05-24T05:14:22;100115.72;;;19.32;77.07
41800;BME280;27468;47.460;19.034;2023-05-24T05:16:48;100135.75;;;19.55;77.87
41800;BME280;27468;47.460;19.034;2023-05-24T05:19:13;100127.38;;;19.61;75.79
41800;BME280;27468;47.460;19.034;2023-05-24T05:21:39;100160.69;;;19.70;75.68
41800;BME280;27468;47.460;19.034;2023-05-24T05:24:04;100093.47;;;19.32;75.61
41800;BME280;27468;47.460;19.034;2023-05-24T05:26:30;100101.34;;;19.19;76.06
41800;BME280;27468;47.460;19.034;2023-05-24T05:28:56;100113.63;;;19.37;76.16
41800;BME280;27468;47.460;19.034;2023-05-24T05:31:22;100150.38;;;19.64;76.00
41800;BME280;27468;47.460;19.034;2023-05-24T05:33:47;100148.84;;;19.60;75.19
41800;BME280;27468;47.460;19.034;2023-05-24T05:36:13;100114.41;;;19.39;75.91
41800;BME280;27468;47.460;19.034;2023-05-24T05:38:39;100114.72;;;19.49;75.38
41800;BME280;27468;47.460;19.034;2023-05-24T05:41:04;100137.56;;;19.69;75.21
41800;BME280;27468;47.460;19.034;2023-05-24T05:43:30;100122.56;;;19.66;74.84
41800;BME280;27468;47.460;19.034;2023-05-24T05:45:55;100131.25;;;19.70;74.37
41800;BME280;27468;47.460;19.034;2023-05-24T05:48:21;100140.06;;;19.72;75.09
41800;BME280;27468;47.460;19.034;2023-05-24T05:50:46;100151.44;;;19.90;73.56
41800;BME280;27468;47.460;19.034;2023-05-24T05:53:12;100126.09;;;19.67;74.06
41800;BME280;27468;47.460;19.034;2023-05-24T05:55:37;100137.59;;;19.83;73.67
41800;BME280;27468;47.460;19.034;2023-05-24T05:58:03;100151.34;;;19.91;72.92
41800;BME280;27468;47.460;19.034;2023-05-24T06:00:28;100161.47;;;19.86;73.13
41800;BME280;27468;47.460;19.034;2023-05-24T06:02:54;100124.69;;;19.75;71.86
41800;BME280;27468;47.460;19.034;2023-05-24T06:05:19;100163.50;;;19.97;72.79
41800;BME280;27468;47.460;19.034;2023-05-24T06:07:44;100152.41;;;20.03;71.71
41800;BME280;27468;47.460;19.034;2023-05-24T06:10:11;100144.19;;;20.06;71.52
41800;BME280;27468;47.460;19.034;2023-05-24T06:12:36;100161.66;;;20.26;71.55
41800;BME280;27468;47.460;19.034;2023-05-24T06:15:05;100100.59;;;20.04;70.27
41800;BME280;27468;47.460;19.034;2023-05-24T06:17:32;100174.75;;;20.59;68.38
41800;BME280;27468;47.460;19.034;2023-05-24T06:19:58;100168.31;;;20.61;68.69
41800;BME280;27468;47.460;19.034;2023-05-24T06:22:24;100173.88;;;20.58;68.46
41800;BME280;27468;47.460;19.034;2023-05-24T06:24:52;100166.22;;;20.66;68.25
41800;BME280;27468;47.460;19.034;2023-05-24T06:27:17;100120.06;;;20.49;67.89
41800;BME280;27468;47.460;19.034;2023-05-24T06:29:43;100177.50;;;20.71;67.33
41800;BME280;27468;47.460;19.034;2023-05-24T06:32:08;100135.88;;;20.66;66.64
41800;BME280;27468;47.460;19.034;2023-05-24T06:34:34;100157.22;;;20.67;66.95
41800;BME280;27468;47.460;19.034;2023-05-24T06:36:59;100169.91;;;20.78;67.46
41800;BME280;27468;47.460;19.034;2023-05-24T06:39:26;100177.31;;;20.87;66.76
41800;BME280;27468;47.460;19.034;2023-05-24T06:41:52;100135.03;;;20.65;67.46
41800;BME280;27468;47.460;19.034;2023-05-24T06:44:18;100148.38;;;20.80;67.62
41800;BME280;27468;47.460;19.034;2023-05-24T06:46:43;100167.25;;;20.78;67.42
41800;BME280;27468;47.460;19.034;2023-05-24T06:49:11;100186.03;;;20.91;67.91
41800;BME280;27468;47.460;19.034;2023-05-24T06:51:36;100187.00;;;20.90;68.09
41800;BME280;27468;47.460;19.034;2023-05-24T06:54:02;100170.63;;;20.67;67.43
41800;BME280;27468;47.460;19.034;2023-05-24T06:56:28;100188.00;;;20.74;67.69
41800;BME280;27468;47.460;19.034;2023-05-24T06:58:54;100153.38;;;20.71;67.87
41800;BME280;27468;47.460;19.034;2023-05-24T07:01:20;100201.16;;;20.92;66.19
41800;BME280;27468;47.460;19.034;2023-05-24T07:03:46;100203.06;;;20.90;66.53
41800;BME280;27468;47.460;19.034;2023-05-24T07:06:11;100164.66;;;20.76;65.85
41800;BME280;27468;47.460;19.034;2023-05-24T07:08:41;100201.34;;;20.89;66.12
41800;BME280;27468;47.460;19.034;2023-05-24T07:11:07;100205.63;;;20.64;67.54
41800;BME280;27468;47.460;19.034;2023-05-24T07:13:33;100180.97;;;20.59;66.57
41800;BME280;27468;47.460;19.034;2023-05-24T07:15:59;100203.38;;;20.85;66.09
41800;BME280;27468;47.460;19.034;2023-05-24T07:18:24;100176.75;;;20.82;66.48
41800;BME280;27468;47.460;19.034;2023-05-24T07:20:50;100198.56;;;20.90;67.30
41800;BME280;27468;47.460;19.034;2023-05-24T07:23:15;100190.44;;;20.92;67.64
41800;BME280;27468;47.460;19.034;2023-05-24T07:25:41;100198.63;;;21.03;66.91
41800;BME280;27468;47.460;19.034;2023-05-24T07:28:06;100214.56;;;21.19;67.04
41800;BME280;27468;47.460;19.034;2023-05-24T07:30:32;100222.72;;;21.17;66.23
41800;BME280;27468;47.460;19.034;2023-05-24T07:32:58;100217.53;;;21.14;66.03
41800;BME280;27468;47.460;19.034;2023-05-24T07:35:23;100222.34;;;21.23;66.14
41800;BME280;27468;47.460;19.034;2023-05-24T07:37:49;100212.16;;;21.28;66.54
41800;BME280;27468;47.460;19.034;2023-05-24T07:40:15;100191.91;;;21.37;65.01
41800;BME280;27468;47.460;19.034;2023-05-24T07:42:40;100208.78;;;21.52;64.09
41800;BME280;27468;47.460;19.034;2023-05-24T07:45:07;100214.03;;;21.53;64.16
41800;BME280;27468;47.460;19.034;2023-05-24T07:47:33;100174.97;;;21.36;64.48
41800;BME280;27468;47.460;19.034;2023-05-24T07:49:59;100190.19;;;21.49;63.63
41800;BME280;27468;47.460;19.034;2023-05-24T07:52:24;100224.78;;;21.66;63.65
41800;BME280;27468;47.460;19.034;2023-05-24T07:54:50;100225.09;;;21.61;63.39
41800;BME280;27468;47.460;19.034;2023-05-24T07:57:17;100219.88;;;21.72;63.43
41800;BME280;27468;47.460;19.034;2023-05-24T07:59:43;100189.44;;;21.47;62.83
41800;BME280;27468;47.460;19.034;2023-05-24T08:02:08;100195.91;;;21.57;62.35
41800;BME280;27468;47.460;19.034;2023-05-24T08:04:36;100226.44;;;21.81;62.65
41800;BME280;27468;47.460;19.034;2023-05-24T08:07:01;100194.66;;;21.75;62.30
41800;BME280;27468;47.460;19.034;2023-05-24T08:09:27;100227.66;;;22.15;61.88
41800;BME280;27468;47.460;19.034;2023-05-24T08:11:54;100243.13;;;22.24;61.52
41800;BME280;27468;47.460;19.034;2023-05-24T08:14:21;100234.31;;;22.35;60.49
41800;BME280;27468;47.460;19.034;2023-05-24T08:16:47;100208.41;;;22.08;60.49
41800;BME280;27468;47.460;19.034;2023-05-24T08:19:12;100252.34;;;22.20;60.08
41800;BME280;27468;47.460;19.034;2023-05-24T08:21:37;100188.44;;;21.87;60.21
41800;BME280;27468;47.460;19.034;2023-05-24T08:24:03;100236.13;;;22.09;60.82
41800;BME280;27468;47.460;19.034;2023-05-24T08:26:28;100241.63;;;22.20;61.18
41800;BME280;27468;47.460;19.034;2023-05-24T08:28:53;100236.56;;;22.41;60.81
41800;BME280;27468;47.460;19.034;2023-05-24T08:31:20;100237.53;;;22.40;59.67
41800;BME280;27468;47.460;19.034;2023-05-24T08:33:46;100192.63;;;22.04;60.27
41800;BME280;27468;47.460;19.034;2023-05-24T08:36:15;100241.81;;;22.43;59.01
41800;BME280;27468;47.460;19.034;2023-05-24T08:38:40;100250.94;;;22.53;56.99
41800;BME280;27468;47.460;19.034;2023-05-24T08:41:06;100243.09;;;22.50;57.34
41800;BME280;27468;47.460;19.034;2023-05-24T08:43:32;100263.06;;;22.58;57.93
41800;BME280;27468;47.460;19.034;2023-05-24T08:46:00;100212.28;;;22.43;57.85
41800;BME280;27468;47.460;19.034;2023-05-24T08:48:27;100271.09;;;22.71;57.04
41800;BME280;27468;47.460;19.034;2023-05-24T08:50:53;100266.59;;;22.59;56.58
41800;BME280;27468;47.460;19.034;2023-05-24T08:53:19;100229.91;;;22.34;57.33
41800;BME280;27468;47.460;19.034;2023-05-24T08:55:47;100277.06;;;22.51;58.24
41800;BME280;27468;47.460;19.034;2023-05-24T08:58:14;100267.28;;;22.50;57.80
41800;BME280;27468;47.460;19.034;2023-05-24T09:00:40;100278.78;;;22.26;58.43
41800;BME280;27468;47.460;19.034;2023-05-24T09:03:06;100247.63;;;22.11;57.69
41800;BME280;27468;47.460;19.034;2023-05-24T09:05:32;100285.78;;;22.29;55.97
41800;BME280;27468;47.460;19.034;2023-05-24T09:07:59;100260.91;;;22.00;56.13
41800;BME280;27468;47.460;19.034;2023-05-24T09:10:26;100293.19;;;22.25;56.54
41800;BME280;27468;47.460;19.034;2023-05-24T09:12:57;100285.97;;;22.26;56.96
41800;BME280;27468;47.460;19.034;2023-05-24T09:15:23;100292.09;;;22.28;56.07
41800;BME280;27468;47.460;19.034;2023-05-24T09:17:49;100243.19;;;21.97;56.53
41800;BME280;27468;47.460;19.034;2023-05-24T09:20:15;100300.50;;;22.36;55.73
41800;BME280;27468;47.460;19.034;2023-05-24T09:22:41;100272.44;;;22.15;56.53
41800;BME280;27468;47.460;19.034;2023-05-24T09:25:07;100260.09;;;22.12;54.87
41800;BME280;27468;47.460;19.034;2023-05-24T09:27:34;100285.53;;;22.19;56.42
41800;BME280;27468;47.460;19.034;2023-05-24T09:30:01;100291.03;;;22.30;56.46
41800;BME280;27468;47.460;19.034;2023-05-24T09:32:29;100264.50;;;22.26;56.33
41800;BME280;27468;47.460;19.034;2023-05-24T09:34:57;100272.34;;;22.29;56.50
41800;BME280;27468;47.460;19.034;2023-05-24T09:37:24;100247.63;;;22.11;56.80
41800;BME280;27468;47.460;19.034;2023-05-24T09:39:52;100260.75;;;22.41;55.91
41800;BME280;27468;47.460;19.034;2023-05-24T09:42:19;100295.84;;;22.63;55.79
41800;BME280;27468;47.460;19.034;2023-05-24T09:45:03;100282.06;;;22.68;55.40
41800;BME280;27468;47.460;19.034;2023-05-24T09:47:35;100285.06;;;22.76;54.77
41800;BME280;27468;47.460;19.034;2023-05-24T09:50:01;100279.16;;;22.71;53.70
41800;BME280;27468;47.460;19.034;2023-05-24T09:52:27;100259.81;;;22.66;54.46
41800;BME280;27468;47.460;19.034;2023-05-24T09:54:52;100276.81;;;22.79;53.83
41800;BME280;27468;47.460;19.034;2023-05-24T09:57:18;100280.34;;;22.92;53.67
41800;BME280;27468;47.460;19.034;2023-05-24T09:59:48;100278.41;;;22.94;53.50
41800;BME280;27468;47.460;19.034;2023-05-24T10:02:14;100277.00;;;23.01;53.09
41800;BME280;27468;47.460;19.034;2023-05-24T10:04:42;100265.72;;;22.96;53.14
41800;BME280;27468;47.460;19.034;2023-05-24T10:07:09;100259.78;;;23.04;52.36
41800;BME280;27468;47.460;19.034;2023-05-24T10:09:36;100219.78;;;22.99;51.83
41800;BME280;27468;47.460;19.034;2023-05-24T10:12:04;100279.88;;;23.35;52.19
41800;BME280;27468;47.460;19.034;2023-05-24T10:14:34;100268.13;;;23.36;51.94
41800;BME280;27468;47.460;19.034;2023-05-24T10:17:06;100265.22;;;23.39;52.03
41800;BME280;27468;47.460;19.034;2023-05-24T10:19:32;100274.16;;;23.39;52.38
41800;BME280;27468;47.460;19.034;2023-05-24T10:21:59;100266.59;;;23.45;52.58
41800;BME280;27468;47.460;19.034;2023-05-24T10:24:29;100255.88;;;23.32;52.37
41800;BME280;27468;47.460;19.034;2023-05-24T10:26:57;100233.28;;;23.11;53.03
41800;BME280;27468;47.460;19.034;2023-05-24T10:29:49;100266.97;;;23.27;53.37
41800;BME280;27468;47.460;19.034;2023-05-24T10:32:18;100262.16;;;23.20;51.86
41800;BME280;27468;47.460;19.034;2023-05-24T10:34:45;100232.06;;;23.15;52.26
41800;BME280;27468;47.460;19.034;2023-05-24T10:37:11;100232.81;;;23.17;51.77
41800;BME280;27468;47.460;19.034;2023-05-24T10:39:37;100263.66;;;23.48;52.08
41800;BME280;27468;47.460;19.034;2023-05-24T10:42:03;100262.28;;;23.55;51.72
41800;BME280;27468;47.460;19.034;2023-05-24T10:44:29;100265.34;;;23.61;51.35
41800;BME280;27468;47.460;19.034;2023-05-24T10:47:14;100258.78;;;23.77;51.81
41800;BME280;27468;47.460;19.034;2023-05-24T10:52:13;100223.06;;;23.51;50.91
41800;BME280;27468;47.460;19.034;2023-05-24T10:54:38;100213.69;;;23.32;50.13
41800;BME280;27468;47.460;19.034;2023-05-24T10:57:05;100205.41;;;23.35;50.15
41800;BME280;27468;47.460;19.034;2023-05-24T10:59:33;100256.66;;;23.69;49.77
41800;BME280;27468;47.460;19.034;2023-05-24T11:02:02;100204.25;;;23.51;50.91
41800;BME280;27468;47.460;19.034;2023-05-24T11:04:34;100237.97;;;23.67;49.61
41800;BME280;27468;47.460;19.034;2023-05-24T11:07:03;100244.22;;;23.79;49.58
41800;BME280;27468;47.460;19.034;2023-05-24T11:09:30;100214.09;;;23.63;50.31
41800;BME280;27468;47.460;19.034;2023-05-24T11:12:01;100215.44;;;23.68;50.64
41800;BME280;27468;47.460;19.034;2023-05-24T11:14:29;100248.56;;;23.93;50.45
41800;BME280;27468;47.460;19.034;2023-05-24T11:16:57;100236.41;;;23.87;47.81
41800;BME280;27468;47.460;19.034;2023-05-24T11:19:43;100215.09;;;23.62;49.62
41800;BME280;27468;47.460;19.034;2023-05-24T11:22:12;100196.91;;;23.53;49.41
41800;BME280;27468;47.460;19.034;2023-05-24T11:24:39;100207.00;;;23.73;49.08
41800;BME280;27468;47.460;19.034;2023-05-24T11:27:05;100224.72;;;23.99;50.14
41800;BME280;27468;47.460;19.034;2023-05-24T11:29:31;100216.66;;;24.11;48.81
41800;BME280;27468;47.460;19.034;2023-05-24T11:31:58;100198.41;;;24.14;47.76
41800;BME280;27468;47.460;19.034;2023-05-24T11:34:29;100231.13;;;24.32;48.21
41800;BME280;27468;47.460;19.034;2023-05-24T11:36:55;100230.16;;;24.44;47.81
41800;BME280;27468;47.460;19.034;2023-05-24T11:39:20;100196.09;;;24.21;47.03
41800;BME280;27468;47.460;19.034;2023-05-24T11:41:48;100209.44;;;24.33;47.05
41800;BME280;27468;47.460;19.034;2023-05-24T11:44:17;100194.50;;;24.29;47.63
41800;BME280;27468;47.460;19.034;2023-05-24T11:46:45;100231.00;;;24.56;48.33
41800;BME280;27468;47.460;19.034;2023-05-24T11:49:15;100202.97;;;24.47;49.17
41800;BME280;27468;47.460;19.034;2023-05-24T11:51:41;100211.03;;;24.47;48.44
41800;BME280;27468;47.460;19.034;2023-05-24T11:54:07;100230.78;;;24.59;48.79
41800;BME280;27468;47.460;19.034;2023-05-24T11:56:33;100229.41;;;24.53;47.13
41800;BME280;27468;47.460;19.034;2023-05-24T11:59:08;100213.38;;;24.41;47.37
41800;BME280;27468;47.460;19.034;2023-05-24T12:01:34;100215.44;;;24.37;45.83
41800;BME280;27468;47.460;19.034;2023-05-24T12:03:59;100184.34;;;24.22;45.88
41800;BME280;27468;47.460;19.034;2023-05-24T12:06:33;100209.69;;;24.53;46.84
41800;BME280;27468;47.460;19.034;2023-05-24T12:09:00;100217.78;;;24.64;46.14
41800;BME280;27468;47.460;19.034;2023-05-24T12:11:25;100180.41;;;24.48;46.13
41800;BME280;27468;47.460;19.034;2023-05-24T12:13:52;100228.19;;;24.68;45.63
41800;BME280;27468;47.460;19.034;2023-05-24T12:16:18;100221.34;;;24.64;46.10
41800;BME280;27468;47.460;19.034;2023-05-24T12:18:43;100212.28;;;24.54;46.66
41800;BME280;27468;47.460;19.034;2023-05-24T12:21:09;100216.44;;;24.58;46.75
41800;BME280;27468;47.460;19.034;2023-05-24T12:23:35;100225.50;;;24.80;46.36
41800;BME280;27468;47.460;19.034;2023-05-24T12:26:02;100217.41;;;24.80;45.68
41800;BME280;27468;47.460;19.034;2023-05-24T12:28:35;100211.75;;;24.83;45.61
41800;BME280;27468;47.460;19.034;2023-05-24T12:31:02;100202.03;;;24.91;45.34
41800;BME280;27468;47.460;19.034;2023-05-24T12:33:29;100216.81;;;25.19;45.62
41800;BME280;27468;47.460;19.034;2023-05-24T12:35:55;100206.13;;;25.29;45.19
41800;BME280;27468;47.460;19.034;2023-05-24T12:38:23;100169.72;;;25.23;45.77
41800;BME280;27468;47.460;19.034;2023-05-24T12:40:50;100191.59;;;25.41;45.24
41800;BME280;27468;47.460;19.034;2023-05-24T12:43:18;100210.50;;;25.62;45.22
41800;BME280;27468;47.460;19.034;2023-05-24T12:45:43;100197.91;;;25.51;44.83
41800;BME280;27468;47.460;19.034;2023-05-24T12:48:08;100199.03;;;25.49;44.12
41800;BME280;27468;47.460;19.034;2023-05-24T12:50:34;100186.47;;;25.38;44.19
41800;BME280;27468;47.460;19.034;2023-05-24T12:52:59;100207.38;;;25.46;44.56